createdAt,value
2018-08-17T00:01:51.932Z,7.57
2018-08-17T00:04:19.107Z,9.00
2018-08-17T00:06:46.276Z,8.23
2018-08-17T00:09:13.606Z,11.23
2018-08-17T00:11:40.780Z,9.83
2018-08-17T00:14:08.271Z,8.63
2018-08-17T00:16:35.403Z,10.70
2018-08-17T00:19:03.260Z,9.20
2018-08-17T00:21:30.409Z,13.83
2018-08-17T00:23:57.581Z,11.60
2018-08-17T00:26:24.732Z,15.73
2018-08-17T00:28:51.959Z,7.87
2018-08-17T00:31:19.089Z,9.00
2018-08-17T00:33:46.229Z,8.20
2018-08-17T00:36:13.328Z,6.00
2018-08-17T00:38:40.452Z,11.30
2018-08-17T00:41:07.696Z,9.93
2018-08-17T00:43:34.846Z,12.60
2018-08-17T00:46:02.072Z,8.93
2018-08-17T00:48:29.620Z,10.73
2018-08-17T00:50:56.732Z,8.13
2018-08-17T00:53:23.900Z,7.00
2018-08-17T00:55:51.028Z,11.50
2018-08-17T00:58:18.148Z,11.07
2018-08-17T01:00:45.308Z,8.63
2018-08-17T01:03:12.403Z,7.17
2018-08-17T01:05:39.552Z,8.50
2018-08-17T01:08:06.988Z,10.37
2018-08-17T01:10:34.114Z,9.73
2018-08-17T01:13:01.273Z,10.63
2018-08-17T01:15:28.423Z,10.50
2018-08-17T01:17:55.600Z,9.93
2018-08-17T01:20:22.756Z,13.00
2018-08-17T01:22:49.866Z,8.27
2018-08-17T01:25:17.021Z,9.70
2018-08-17T01:27:44.184Z,12.53
2018-08-17T01:30:11.351Z,10.20
2018-08-17T01:32:38.493Z,8.30
2018-08-17T01:35:06.012Z,7.13
2018-08-17T01:37:33.133Z,10.93
2018-08-17T01:40:00.337Z,10.20
2018-08-17T01:42:27.466Z,11.43
2018-08-17T01:44:54.583Z,8.20
2018-08-17T01:47:21.780Z,7.67
2018-08-17T01:49:48.924Z,7.83
2018-08-17T01:52:16.052Z,11.93
2018-08-17T01:54:43.201Z,12.27
2018-08-17T01:57:10.408Z,7.43
2018-08-17T01:59:37.508Z,10.83
2018-08-17T02:02:04.776Z,7.77
2018-08-17T02:04:31.856Z,8.33
2018-08-17T02:06:58.952Z,8.40
2018-08-17T02:09:26.092Z,12.63
2018-08-17T02:11:53.268Z,8.00
2018-08-17T02:14:20.447Z,9.33
2018-08-17T02:16:47.570Z,7.03
2018-08-17T02:19:14.717Z,11.10
2018-08-17T02:21:41.818Z,7.83
2018-08-17T02:24:08.993Z,9.60
2018-08-17T02:26:36.061Z,10.73
2018-08-17T02:29:03.301Z,10.00
2018-08-17T02:31:30.458Z,8.90
2018-08-17T02:33:57.600Z,9.20
2018-08-17T02:36:24.728Z,7.40
2018-08-17T02:38:51.830Z,10.43
2018-08-17T02:41:18.983Z,8.07
2018-08-17T02:43:46.203Z,7.57
2018-08-17T02:46:13.356Z,7.70
2018-08-17T02:48:40.451Z,11.37
2018-08-17T02:51:07.588Z,7.57
2018-08-17T02:53:34.776Z,9.30
2018-08-17T02:56:01.903Z,10.53
2018-08-17T02:58:29.159Z,8.80
2018-08-17T03:00:56.515Z,7.50
2018-08-17T03:03:23.683Z,11.57
2018-08-17T03:05:50.855Z,9.67
2018-08-17T03:08:18.005Z,8.77
2018-08-17T03:10:45.183Z,7.37
2018-08-17T03:13:12.332Z,9.90
2018-08-17T03:15:39.443Z,7.30
2018-08-17T03:18:06.577Z,10.93
2018-08-17T03:20:33.768Z,12.83
2018-08-17T03:23:00.917Z,9.97
2018-08-17T03:25:28.052Z,7.60
2018-08-17T03:27:55.192Z,7.97
2018-08-17T03:30:22.365Z,9.80
2018-08-17T03:32:49.508Z,12.23
2018-08-17T03:35:16.632Z,10.60
2018-08-17T03:37:43.762Z,8.97
2018-08-17T03:40:10.865Z,9.67
2018-08-17T03:42:37.979Z,7.80
2018-08-17T03:45:05.535Z,7.90
2018-08-17T03:47:32.629Z,14.03
2018-08-17T03:49:59.829Z,8.60
2018-08-17T03:52:26.976Z,8.73
2018-08-17T03:54:54.160Z,14.43
2018-08-17T03:57:21.292Z,9.23
2018-08-17T03:59:48.432Z,13.80
2018-08-17T04:02:15.516Z,8.70
2018-08-17T04:04:42.618Z,10.83
2018-08-17T04:07:09.774Z,12.03
2018-08-17T04:09:37.052Z,7.67
2018-08-17T04:12:04.196Z,11.67
2018-08-17T04:14:31.297Z,13.90
2018-08-17T04:16:58.432Z,7.53
2018-08-17T04:19:25.600Z,8.80
2018-08-17T04:21:52.735Z,9.23
2018-08-17T04:24:19.869Z,6.37
2018-08-17T04:26:47.078Z,8.10
2018-08-17T04:29:14.205Z,8.00
2018-08-17T04:31:41.356Z,7.60
2018-08-17T04:34:08.507Z,8.27
2018-08-17T04:36:35.655Z,10.00
2018-08-17T04:39:02.976Z,7.80
2018-08-17T04:41:30.127Z,7.20
2018-08-17T04:43:57.332Z,10.27
2018-08-17T04:46:24.492Z,9.10
2018-08-17T04:48:51.820Z,10.20
2018-08-17T04:51:18.903Z,12.23
2018-08-17T04:53:46.036Z,8.13
2018-08-17T04:56:13.200Z,8.00
2018-08-17T04:58:40.362Z,6.77
2018-08-17T05:01:07.790Z,8.03
2018-08-17T05:03:35.025Z,8.30
2018-08-17T05:06:02.176Z,7.47
2018-08-17T05:08:29.280Z,8.03
2018-08-17T05:10:56.403Z,8.73
2018-08-17T05:13:23.477Z,7.23
2018-08-17T05:15:50.644Z,7.97
2018-08-17T05:18:17.765Z,8.10
2018-08-17T05:20:44.934Z,8.70
2018-08-17T05:23:12.088Z,7.40
2018-08-17T05:25:39.188Z,11.03
2018-08-17T05:28:06.445Z,8.87
2018-08-17T05:30:33.716Z,9.07
2018-08-17T05:33:00.897Z,11.17
2018-08-17T05:35:28.014Z,7.67
2018-08-17T05:37:55.147Z,8.50
2018-08-17T05:40:22.256Z,9.70
2018-08-17T05:42:49.419Z,8.23
2018-08-17T05:45:16.721Z,8.63
2018-08-17T05:47:43.889Z,8.50
2018-08-17T05:50:11.037Z,10.77
2018-08-17T05:52:38.163Z,9.00
2018-08-17T05:55:05.686Z,10.13
2018-08-17T05:57:33.275Z,8.67
2018-08-17T06:00:00.456Z,10.10
2018-08-17T06:02:27.565Z,10.43
2018-08-17T06:04:54.808Z,8.87
2018-08-17T06:07:22.012Z,9.07
2018-08-17T06:09:49.200Z,10.50
2018-08-17T06:12:16.318Z,9.57
2018-08-17T06:14:43.595Z,13.40
2018-08-17T06:17:10.840Z,7.83
2018-08-17T06:19:37.992Z,9.60
2018-08-17T06:22:05.468Z,9.10
2018-08-17T06:24:32.636Z,9.33
2018-08-17T06:26:59.944Z,9.07
2018-08-17T06:29:27.082Z,9.93
2018-08-17T06:31:54.488Z,11.07
2018-08-17T06:34:21.661Z,9.53
2018-08-17T06:36:48.852Z,10.13
2018-08-17T06:39:16.052Z,8.67
2018-08-17T06:41:43.219Z,10.37
2018-08-17T06:44:10.352Z,9.10
2018-08-17T06:46:37.442Z,9.57
2018-08-17T06:49:04.606Z,9.40
2018-08-17T06:51:31.718Z,10.17
2018-08-17T06:53:58.897Z,11.13
2018-08-17T06:56:26.086Z,9.43
2018-08-17T06:58:53.260Z,8.30
2018-08-17T07:01:20.461Z,8.27
2018-08-17T07:03:47.580Z,7.97
2018-08-17T07:06:14.715Z,7.00
2018-08-17T07:08:41.951Z,6.63
2018-08-17T07:11:09.125Z,7.50
2018-08-17T07:13:36.276Z,7.00
2018-08-17T07:16:03.412Z,6.00
2018-08-17T07:18:30.548Z,8.10
2018-08-17T07:20:57.720Z,6.80
2018-08-17T07:23:24.842Z,6.13
2018-08-17T07:25:51.968Z,5.53
2018-08-17T07:28:19.190Z,6.60
2018-08-17T07:30:46.303Z,5.03
2018-08-17T07:33:13.416Z,4.83
2018-08-17T07:35:40.578Z,5.30
2018-08-17T07:38:07.716Z,4.77
2018-08-17T07:40:34.869Z,9.20
2018-08-17T07:43:01.996Z,9.20
2018-08-17T07:45:29.109Z,4.87
2018-08-17T07:47:56.264Z,6.00
2018-08-17T07:50:23.423Z,11.07
2018-08-17T07:52:50.730Z,8.73
2018-08-17T07:55:17.920Z,7.17
2018-08-17T07:57:45.184Z,4.07
2018-08-17T08:00:13.000Z,5.47
2018-08-17T08:02:40.116Z,4.83
2018-08-17T08:05:09.428Z,4.77
2018-08-17T08:07:36.542Z,5.07
2018-08-17T08:10:04.268Z,5.00
2018-08-17T08:12:31.368Z,5.07
2018-08-17T08:14:58.481Z,5.37
2018-08-17T08:17:25.612Z,4.97
2018-08-17T08:20:04.457Z,5.10
2018-08-17T08:22:31.630Z,4.20
2018-08-17T08:24:58.804Z,4.17
2018-08-17T08:27:25.940Z,4.63
2018-08-17T08:29:53.132Z,11.60
2018-08-17T08:32:20.336Z,4.37
2018-08-17T08:34:47.479Z,4.03
2018-08-17T08:37:14.689Z,4.07
2018-08-17T08:39:41.811Z,6.10
2018-08-17T08:42:09.017Z,4.67
2018-08-17T08:44:36.181Z,8.80
2018-08-17T08:47:03.436Z,3.50
2018-08-17T08:49:30.599Z,6.80
2018-08-17T08:51:57.912Z,3.40
2018-08-17T08:54:25.072Z,3.60
2018-08-17T08:56:52.209Z,4.70
2018-08-17T08:59:19.440Z,5.13
2018-08-17T09:01:46.648Z,3.40
2018-08-17T09:04:13.774Z,4.93
2018-08-17T09:06:40.928Z,3.30
2018-08-17T09:09:08.775Z,4.80
2018-08-17T09:11:35.924Z,3.57
2018-08-17T09:14:03.131Z,3.40
2018-08-17T09:16:30.301Z,3.70
2018-08-17T09:18:57.477Z,3.10
2018-08-17T09:21:24.630Z,3.40
2018-08-17T09:23:51.793Z,3.50
2018-08-17T09:26:18.957Z,4.80
2018-08-17T09:28:46.073Z,3.00
2018-08-17T09:31:13.229Z,3.90
2018-08-17T09:33:40.358Z,3.87
2018-08-17T09:36:07.568Z,3.20
2018-08-17T09:38:34.685Z,4.20
2018-08-17T09:41:01.811Z,3.30
2018-08-17T09:43:28.932Z,3.37
2018-08-17T09:45:56.073Z,3.20
2018-08-17T09:48:23.348Z,5.83
2018-08-17T09:50:50.488Z,3.03
2018-08-17T09:53:17.650Z,3.47
2018-08-17T09:55:44.802Z,4.00
2018-08-17T09:58:11.919Z,3.60
2018-08-17T10:00:44.748Z,4.20
2018-08-17T10:03:17.718Z,3.53
2018-08-17T10:05:44.923Z,3.87
2018-08-17T10:08:17.775Z,4.20
2018-08-17T10:10:44.954Z,3.27
2018-08-17T10:13:12.179Z,4.03
2018-08-17T10:15:39.379Z,3.00
2018-08-17T10:18:06.622Z,5.20
2018-08-17T10:20:33.907Z,2.53
2018-08-17T10:23:10.357Z,3.17
2018-08-17T10:25:37.967Z,5.97
2018-08-17T10:28:05.113Z,2.70
2018-08-17T10:30:32.290Z,3.20
2018-08-17T10:33:00.073Z,5.47
2018-08-17T10:35:30.549Z,3.50
2018-08-17T10:37:58.898Z,3.67
2018-08-17T10:40:26.262Z,3.00
2018-08-17T10:42:53.445Z,8.93
2018-08-17T10:45:22.293Z,2.77
2018-08-17T10:47:50.167Z,4.03
2018-08-17T10:50:17.453Z,2.47
2018-08-17T10:52:44.565Z,2.77
2018-08-17T10:55:12.352Z,2.97
2018-08-17T10:57:39.464Z,3.30
2018-08-17T11:00:07.834Z,2.87
2018-08-17T11:02:35.054Z,2.53
2018-08-17T11:05:02.234Z,2.70
2018-08-17T11:07:35.008Z,3.40
2018-08-17T11:10:02.223Z,5.93
2018-08-17T11:12:29.414Z,2.40
2018-08-17T11:14:56.589Z,3.87
2018-08-17T11:17:23.783Z,2.90
2018-08-17T11:19:50.954Z,4.63
2018-08-17T11:22:18.182Z,3.23
2018-08-17T11:24:45.384Z,3.10
2018-08-17T11:27:12.576Z,3.40
2018-08-17T11:29:39.776Z,3.37
2018-08-17T11:32:07.045Z,4.13
2018-08-17T11:34:34.297Z,2.80
2018-08-17T11:37:01.507Z,3.60
2018-08-17T11:39:28.793Z,2.90
2018-08-17T11:41:56.013Z,3.83
2018-08-17T11:44:23.204Z,3.20
2018-08-17T11:46:50.445Z,3.10
2018-08-17T11:49:17.653Z,3.20
2018-08-17T11:51:44.888Z,4.90
2018-08-17T11:54:12.314Z,3.90
2018-08-17T11:56:39.893Z,3.07
2018-08-17T11:59:07.125Z,3.10
2018-08-17T12:01:34.892Z,2.80
2018-08-17T12:04:02.273Z,3.20
2018-08-17T12:06:29.520Z,3.40
2018-08-17T12:08:56.714Z,4.30
2018-08-17T12:11:23.950Z,3.30
2018-08-17T12:13:51.106Z,5.13
2018-08-17T12:16:18.297Z,3.07
2018-08-17T12:18:45.513Z,3.00
2018-08-17T12:21:12.776Z,3.40
2018-08-17T12:23:39.957Z,3.60
2018-08-17T12:26:07.141Z,3.13
2018-08-17T12:28:34.354Z,2.50
2018-08-17T12:31:01.539Z,3.03
2018-08-17T12:33:28.720Z,2.87
2018-08-17T12:35:55.892Z,2.90
2018-08-17T12:38:23.053Z,3.03
2018-08-17T12:40:52.446Z,2.63
2018-08-17T12:43:23.402Z,3.30
2018-08-17T12:45:50.543Z,2.47
2018-08-17T12:48:17.741Z,3.03
2018-08-17T12:50:45.272Z,6.07
2018-08-17T12:53:12.764Z,3.03
2018-08-17T12:55:39.970Z,2.73
2018-08-17T12:58:07.283Z,3.57
2018-08-17T13:00:34.481Z,3.17
2018-08-17T13:03:01.717Z,3.50
2018-08-17T13:05:28.876Z,2.97
2018-08-17T13:07:56.089Z,2.77
2018-08-17T13:10:23.253Z,2.90
2018-08-17T13:12:55.913Z,3.97
2018-08-17T13:15:23.751Z,3.33
2018-08-17T13:17:50.913Z,2.90
2018-08-17T13:20:18.763Z,4.43
2018-08-17T13:22:45.964Z,2.73
2018-08-17T13:25:13.134Z,2.70
2018-08-17T13:27:40.319Z,3.40
2018-08-17T13:30:10.266Z,3.63
2018-08-17T13:32:37.446Z,3.20
2018-08-17T13:35:04.731Z,3.37
2018-08-17T13:37:31.990Z,2.60
2018-08-17T13:39:59.168Z,2.90
2018-08-17T13:42:26.473Z,2.80
2018-08-17T13:44:53.532Z,3.00
2018-08-17T13:47:20.730Z,2.90
2018-08-17T13:49:47.853Z,2.80
2018-08-17T13:52:15.009Z,3.10
2018-08-17T13:54:42.208Z,2.47
2018-08-17T13:57:09.452Z,2.00
2018-08-17T13:59:36.645Z,3.77
2018-08-17T14:02:03.809Z,3.70
2018-08-17T14:04:31.022Z,5.63
2018-08-17T14:06:58.251Z,3.00
2018-08-17T14:09:25.427Z,2.87
2018-08-17T14:11:52.592Z,2.87
2018-08-17T14:14:19.802Z,3.50
2018-08-17T14:16:47.007Z,3.27
2018-08-17T14:19:14.190Z,3.10
2018-08-17T14:21:41.394Z,3.17
2018-08-17T14:24:08.558Z,3.50
2018-08-17T14:26:35.783Z,2.77
2018-08-17T14:29:02.943Z,3.30
2018-08-17T14:31:30.102Z,3.43
2018-08-17T14:33:57.284Z,2.90
2018-08-17T14:36:24.412Z,2.60
2018-08-17T14:38:51.539Z,2.70
2018-08-17T14:41:18.688Z,3.17
2018-08-17T14:43:45.814Z,2.83
2018-08-17T14:46:13.002Z,2.83
2018-08-17T14:48:40.152Z,3.17
2018-08-17T14:51:07.421Z,4.60
2018-08-17T14:53:34.574Z,3.10
2018-08-17T14:56:01.729Z,2.90
2018-08-17T14:58:28.933Z,3.10
2018-08-17T15:00:56.089Z,2.77
2018-08-17T15:03:23.305Z,3.00
2018-08-17T15:05:50.449Z,2.60
2018-08-17T15:08:17.643Z,2.73
2018-08-17T15:10:44.796Z,2.50
2018-08-17T15:13:11.983Z,2.93
2018-08-17T15:15:39.104Z,4.50
2018-08-17T15:18:06.289Z,3.33
2018-08-17T15:20:33.413Z,6.23
2018-08-17T15:23:00.566Z,3.10
2018-08-17T15:25:27.733Z,2.90
2018-08-17T15:27:54.859Z,2.90
2018-08-17T15:30:22.038Z,2.93
2018-08-17T15:32:49.436Z,3.20
2018-08-17T15:35:16.595Z,2.63
2018-08-17T15:37:44.045Z,3.00
2018-08-17T15:40:12.015Z,3.23
2018-08-17T15:42:39.684Z,2.80
2018-08-17T15:45:07.447Z,2.80
2018-08-17T15:47:35.537Z,3.40
2018-08-17T15:50:07.431Z,3.63
2018-08-17T15:52:34.624Z,3.10
2018-08-17T15:55:01.734Z,2.60
2018-08-17T15:57:28.957Z,2.80
2018-08-17T15:59:56.115Z,2.80
2018-08-17T16:02:25.653Z,2.77
2018-08-17T16:04:55.021Z,2.40
2018-08-17T16:07:22.264Z,2.60
2018-08-17T16:09:49.525Z,2.37
2018-08-17T16:12:16.706Z,3.97
2018-08-17T16:14:43.922Z,2.50
2018-08-17T16:17:11.136Z,2.30
2018-08-17T16:19:38.354Z,4.47
2018-08-17T16:22:05.944Z,2.33
2018-08-17T16:24:33.100Z,3.07
2018-08-17T16:27:00.384Z,2.77
2018-08-17T16:29:27.604Z,4.93
2018-08-17T16:31:54.885Z,2.87
2018-08-17T16:34:22.102Z,3.23
2018-08-17T16:36:49.283Z,2.67
2018-08-17T16:39:16.995Z,3.50
2018-08-17T16:41:44.317Z,3.33
2018-08-17T16:44:11.955Z,2.90
2018-08-17T16:46:40.407Z,3.10
2018-08-17T16:49:07.760Z,2.70
2018-08-17T16:51:35.040Z,2.97
2018-08-17T16:54:02.235Z,2.67
2018-08-17T16:56:29.434Z,3.70
2018-08-17T16:58:56.668Z,3.03
2018-08-17T17:01:23.896Z,3.83
2018-08-17T17:03:51.200Z,3.03
2018-08-17T17:06:18.345Z,4.00
2018-08-17T17:08:45.554Z,2.53
2018-08-17T17:11:12.715Z,2.37
2018-08-17T17:13:41.070Z,5.40
2018-08-17T17:16:08.282Z,3.43
2018-08-17T17:18:35.453Z,4.07
2018-08-17T17:21:02.675Z,3.13
2018-08-17T17:23:29.846Z,2.67
2018-08-17T17:25:56.995Z,3.67
2018-08-17T17:28:29.029Z,3.70
2018-08-17T17:30:56.239Z,3.67
2018-08-17T17:33:23.397Z,3.10
2018-08-17T17:35:50.627Z,3.40
2018-08-17T17:38:17.841Z,2.87
2018-08-17T17:40:45.083Z,2.80
2018-08-17T17:43:12.283Z,3.27
2018-08-17T17:45:39.890Z,3.67
2018-08-17T17:48:07.329Z,3.50
2018-08-17T17:50:34.513Z,3.47
2018-08-17T17:53:02.573Z,3.30
2018-08-17T17:55:35.342Z,3.47
2018-08-17T17:58:02.497Z,3.40
2018-08-17T18:00:29.952Z,3.83
2018-08-17T18:02:57.164Z,8.20
2018-08-17T18:05:24.357Z,4.80
2018-08-17T18:07:51.555Z,3.70
2018-08-17T18:10:20.153Z,3.63
2018-08-17T18:12:47.800Z,4.40
2018-08-17T18:15:14.998Z,3.77
2018-08-17T18:17:42.213Z,6.40
2018-08-17T18:20:10.053Z,3.80
2018-08-17T18:22:37.166Z,3.50
2018-08-17T18:25:10.271Z,4.93
2018-08-17T18:27:37.441Z,4.50
2018-08-17T18:30:05.043Z,3.73
2018-08-17T18:32:32.206Z,3.70
2018-08-17T18:34:59.559Z,5.57
2018-08-17T18:37:26.852Z,6.07
2018-08-17T18:39:54.002Z,4.30
2018-08-17T18:42:21.128Z,5.83
2018-08-17T18:44:48.254Z,8.40
2018-08-17T18:47:15.448Z,16.93
2018-08-17T18:49:42.667Z,9.27
2018-08-17T18:52:09.913Z,7.93
2018-08-17T18:54:37.092Z,15.40
2018-08-17T18:57:04.321Z,10.03
2018-08-17T18:59:31.527Z,14.00
2018-08-17T19:01:58.712Z,11.97
2018-08-17T19:04:25.993Z,15.63
2018-08-17T19:06:53.342Z,12.87
2018-08-17T19:09:20.569Z,13.13
2018-08-17T19:11:47.749Z,20.63
2018-08-17T19:14:14.941Z,14.23
2018-08-17T19:16:42.161Z,21.63
2018-08-17T19:19:09.329Z,13.10
2018-08-17T19:21:36.457Z,14.10
2018-08-17T19:24:08.468Z,10.83
2018-08-17T19:26:35.676Z,19.53
2018-08-17T19:29:02.912Z,13.40
2018-08-17T19:31:30.117Z,18.37
2018-08-17T19:33:57.328Z,13.60
2018-08-17T19:36:24.480Z,17.43
2018-08-17T19:38:51.792Z,19.00
2018-08-17T19:41:18.954Z,22.23
2018-08-17T19:43:46.643Z,20.97
2018-08-17T19:46:13.970Z,25.37
2018-08-17T19:48:41.005Z,35.83
2018-08-17T19:51:13.970Z,24.10
2018-08-17T19:53:41.213Z,23.63
2018-08-17T19:56:08.503Z,28.53
2018-08-17T19:58:35.748Z,25.83
2018-08-17T20:01:03.277Z,27.00
2018-08-17T20:03:30.522Z,21.50
2018-08-17T20:05:57.798Z,19.53
2018-08-17T20:08:25.222Z,14.80
2018-08-17T20:10:53.015Z,16.33
2018-08-17T20:13:30.493Z,14.63
2018-08-17T20:15:58.018Z,16.37
2018-08-17T20:18:25.228Z,22.07
2018-08-17T20:20:52.415Z,18.00
2018-08-17T20:23:32.477Z,21.57
2018-08-17T20:25:59.754Z,24.60
2018-08-17T20:28:29.282Z,32.83
2018-08-17T20:30:56.521Z,18.07
2018-08-17T20:33:27.609Z,22.10
2018-08-17T20:35:55.264Z,18.87
2018-08-17T20:38:22.609Z,9.90
2018-08-17T20:40:49.805Z,5.90
2018-08-17T20:43:17.033Z,12.33
2018-08-17T20:45:44.208Z,6.77
2018-08-17T20:48:11.396Z,9.90
2018-08-17T20:50:38.564Z,7.40
2018-08-17T20:53:05.782Z,5.93
2018-08-17T20:55:33.039Z,5.63
2018-08-17T20:58:00.338Z,5.73
2018-08-17T21:00:28.564Z,7.83
2018-08-17T21:15:55.378Z,6.40
2018-08-17T21:18:22.550Z,7.03
2018-08-17T21:20:54.835Z,9.93
2018-08-17T21:23:32.141Z,5.47
2018-08-17T21:25:59.662Z,5.20
2018-08-17T21:28:26.890Z,7.07
2018-08-17T21:30:54.115Z,6.40
2018-08-17T21:33:21.306Z,8.20
2018-08-17T21:35:48.482Z,9.10
2018-08-17T21:38:15.736Z,7.33
2018-08-17T21:40:42.944Z,6.93
2018-08-17T21:43:10.177Z,8.50
2018-08-17T21:45:37.343Z,7.60
2018-08-17T21:48:08.695Z,7.30
2018-08-17T21:50:35.725Z,9.17
2018-08-17T21:53:02.888Z,7.67
2018-08-17T21:55:30.003Z,7.40
2018-08-17T21:57:57.192Z,8.57
2018-08-17T22:00:28.656Z,9.90
2018-08-17T22:02:55.872Z,7.97
2018-08-17T22:05:37.962Z,8.27
2018-08-17T22:08:05.192Z,8.20
2018-08-17T22:10:32.365Z,7.30
2018-08-17T22:12:59.474Z,8.07
2018-08-17T22:15:28.247Z,9.17
2018-08-17T22:17:55.384Z,8.57
2018-08-17T22:20:22.558Z,8.97
2018-08-17T22:22:49.739Z,11.50
2018-08-17T22:25:17.781Z,7.40
2018-08-17T22:27:45.305Z,7.53
2018-08-17T22:30:16.698Z,7.10
2018-08-17T22:32:43.802Z,9.80
2018-08-17T22:35:11.320Z,6.70
2018-08-17T22:37:38.442Z,6.83
2018-08-17T22:40:05.577Z,7.30
2018-08-17T22:42:32.708Z,6.13
2018-08-17T22:45:00.276Z,6.40
2018-08-17T22:47:28.156Z,5.17
2018-08-17T22:49:57.388Z,12.43
2018-08-17T22:52:24.564Z,5.50
2018-08-17T22:54:57.779Z,5.60
2018-08-17T22:57:25.564Z,6.80
2018-08-17T23:00:09.860Z,4.27
2018-08-17T23:02:37.412Z,6.13
2018-08-17T23:05:05.533Z,6.67
2018-08-17T23:07:32.775Z,4.40
2018-08-17T23:09:59.916Z,4.70
2018-08-17T23:12:27.057Z,4.47
2018-08-17T23:14:54.266Z,7.30
2018-08-17T23:17:21.382Z,4.33
2018-08-17T23:19:48.544Z,3.93
2018-08-17T23:22:15.741Z,4.10
2018-08-17T23:24:42.881Z,5.03
2018-08-17T23:27:10.044Z,4.33
2018-08-17T23:29:37.214Z,4.13
2018-08-17T23:32:04.415Z,4.47
2018-08-17T23:34:31.593Z,4.10
2018-08-17T23:36:58.750Z,3.70
2018-08-17T23:39:25.929Z,3.70
2018-08-17T23:41:53.158Z,4.60
2018-08-17T23:44:20.256Z,3.57
2018-08-17T23:46:47.484Z,4.07
2018-08-17T23:49:14.622Z,3.67
2018-08-17T23:51:41.757Z,4.27
2018-08-17T23:54:08.906Z,3.87
2018-08-17T23:56:36.116Z,4.23
2018-08-17T23:59:03.337Z,4.30
